Time;durP1;ratioP1;P1;durP2;ratioP2;P2;SDS_P1;SDS_P2;PMS_P1;PMS_P2;Temp;Humidity;BMP_temperature;BMP_pressure;BME280_temperature;BME280_humidity;BME280_pressure;Samples;Min_cycle;Max_cycle;Signal;HPM_P1;HPM_P2
2022/10/04 00:00:36;;;;;;;14.30;4.10;;;;;;;11.48;70.55;100501.77;108843;1270;22517;-80
2022/10/04 00:03:45;;;;;;;11.90;4.10;;;;;;;11.47;70.62;100505.66;109211;1267;21981;-80
2022/10/04 00:06:25;;;;;;;10.90;3.50;;;;;;;11.50;70.65;100510.60;108934;1270;22502;-80
2022/10/04 00:09:22;;;;;;;15.70;4.10;;;;;;;11.53;70.65;100509.94;109056;1270;22115;-81
2022/10/04 00:12:47;;;;;;;;;;;;;;;;;;;;;
2022/10/04 00:15:48;;;;;;;11.50;3.60;;;;;;;11.57;70.53;100507.39;108951;1271;23310;-82
2022/10/04 00:18:39;;;;;;;15.10;4.30;;;;;;;11.59;70.43;100505.40;108932;1270;22511;-80
2022/10/04 00:22:17;;;;;;;15.60;4.60;;;;;;;11.60;70.46;100502.91;108975;1270;22432;-82
2022/10/04 00:25:45;;;;;;;;;;;;;;;;;;;;;
2022/10/04 00:29:32;;;;;;;;;;;;;;;;;;;;;
2022/10/04 00:32:31;;;;;;;15.90;5.30;;;;;;;11.55;70.45;100490.91;108554;1279;21995;-81
2022/10/04 00:35:24;;;;;;;15.30;4.80;;;;;;;11.56;70.45;100492.41;108585;1276;23170;-81
2022/10/04 00:38:23;;;;;;;12.50;4.40;;;;;;;11.55;70.35;100490.19;108586;1278;23393;-80
2022/10/04 00:41:07;;;;;;;11.70;3.80;;;;;;;11.54;70.47;100489.71;108522;1279;22229;-80
2022/10/04 00:44:15;;;;;;;14.40;4.60;;;;;;;11.54;70.40;100486.40;108730;1273;21982;-80
2022/10/04 00:47:36;;;;;;;11.60;3.90;;;;;;;11.52;70.60;100487.52;108648;1273;23022;-82
2022/10/04 00:51:18;;;;;;;16.30;5.20;;;;;;;11.54;70.75;100490.24;108876;1273;22016;-80
2022/10/04 00:54:52;;;;;;;21.40;5.40;;;;;;;11.53;70.61;100488.52;108876;1273;22224;-81
2022/10/04 00:58:11;;;;;;;18.20;5.20;;;;;;;11.54;70.72;100484.13;108775;1273;23097;-81
2022/10/04 01:02:12;;;;;;;;;;;;;;;;;;;;;
2022/10/04 01:05:55;;;;;;;15.80;4.40;;;;;;;11.55;70.54;100481.16;109561;1266;22007;-80
2022/10/04 01:09:34;;;;;;;15.30;3.30;;;;;;;11.56;70.58;100480.06;109207;1265;21978;-81
2022/10/04 01:13:27;;;;;;;18.40;4.80;;;;;;;11.53;70.52;100478.60;109010;1268;23014;-80
2022/10/04 01:16:37;;;;;;;;;;;;;;;;;;;;;
2022/10/04 01:19:43;;;;;;;;;;;;;;;;;;;;;
2022/10/04 01:22:40;;;;;;;12.70;4.00;;;;;;;11.45;70.57;100475.23;109480;1265;23140;-81
2022/10/04 01:25:52;;;;;;;15.90;4.60;;;;;;;11.41;70.54;100476.45;108913;1273;22571;-81
2022/10/04 01:28:38;;;;;;;17.30;4.00;;;;;;;11.41;70.57;100473.66;108892;1273;23613;-81
2022/10/04 01:31:14;;;;;;;11.00;4.10;;;;;;;11.44;70.43;100474.96;108904;1270;21999;-81
2022/10/04 01:33:46;;;;;;;13.80;3.80;;;;;;;11.39;70.33;100475.48;109034;1270;22504;-81
2022/10/04 01:36:15;;;;;;;14.30;3.40;;;;;;;11.37;70.32;100473.47;108957;1270;21988;-81
2022/10/04 01:38:49;;;;;;;17.40;4.20;;;;;;;11.37;70.30;100476.95;109005;1270;22015;-81
2022/10/04 01:42:14;;;;;;;14.70;4.00;;;;;;;11.33;70.24;100476.93;109010;1267;23050;-81
2022/10/04 01:45:00;;;;;;;12.70;4.70;;;;;;;11.28;70.49;100479.05;109768;1260;23640;-81
2022/10/04 01:48:24;;;;;;;;;;;;;;;;;;;;;
2022/10/04 01:51:55;;;;;;;;;;;;;;;;;;;;;
2022/10/04 01:55:06;;;;;;;12.00;4.00;;;;;;;11.21;70.66;100479.85;110353;1257;21980;-82
2022/10/04 01:58:23;;;;;;;10.50;3.30;;;;;;;11.22;70.63;100483.45;110588;1257;23017;-81
2022/10/04 02:02:08;;;;;;;13.40;3.90;;;;;;;11.18;70.59;100486.92;110663;1254;22740;-81
2022/10/04 02:05:12;;;;;;;14.40;4.30;;;;;;;11.17;70.79;100485.07;110552;1254;23714;-81
2022/10/04 02:08:21;;;;;;;11.50;3.60;;;;;;;11.14;70.69;100487.41;110598;1254;21968;-81
2022/10/04 02:11:22;;;;;;;14.30;3.90;;;;;;;11.11;70.71;100486.66;110835;1251;22086;-81
2022/10/04 02:14:17;;;;;;;11.60;3.50;;;;;;;11.10;70.73;100485.13;110502;1256;21975;-81
2022/10/04 02:17:35;;;;;;;14.60;4.30;;;;;;;11.09;70.82;100483.59;110423;1257;21958;-81
2022/10/04 02:20:45;;;;;;;16.80;4.30;;;;;;;11.06;70.81;100485.48;110333;1257;22187;-81
2022/10/04 02:24:11;;;;;;;10.00;3.10;;;;;;;11.06;71.10;100490.53;110477;1256;21963;-80
2022/10/04 02:27:14;;;;;;;14.10;4.60;;;;;;;11.09;71.04;100491.42;110453;1256;23826;-81
2022/10/04 02:33:52;;;;;;;16.40;4.50;;;;;;;11.12;71.07;100494.66;110024;1260;21969;-80
2022/10/04 02:36:51;;;;;;;11.40;4.50;;;;;;;11.15;71.09;100501.67;110013;1261;22034;-80
2022/10/04 02:39:28;;;;;;;16.00;4.10;;;;;;;11.15;70.99;100504.27;109414;1263;21990;-81
2022/10/04 02:42:37;;;;;;;10.90;3.80;;;;;;;11.15;70.84;100502.88;109444;1264;23687;-82
2022/10/04 02:45:25;;;;;;;12.70;3.90;;;;;;;11.14;70.90;100509.90;109824;1262;22014;-81
2022/10/04 02:48:30;;;;;;;11.70;4.20;;;;;;;11.16;70.90;100508.91;109451;1267;21984;-82
2022/10/04 02:51:57;;;;;;;15.50;4.70;;;;;;;11.16;70.87;100509.11;109332;1264;22031;-81
2022/10/04 02:55:00;;;;;;;11.80;3.90;;;;;;;11.14;70.90;100507.98;109584;1264;24290;-82
2022/10/04 02:57:34;;;;;;;15.80;3.70;;;;;;;11.12;70.85;100502.98;109613;1263;22050;-81
2022/10/04 03:00:16;;;;;;;10.60;4.00;;;;;;;11.13;70.86;100502.60;109529;1264;23062;-81
2022/10/04 03:03:08;;;;;;;9.90;3.70;;;;;;;11.14;70.77;100503.27;109828;1263;22708;-80
2022/10/04 03:05:53;;;;;;;10.40;3.40;;;;;;;11.12;70.82;100506.48;110029;1257;21991;-81
2022/10/04 03:08:33;;;;;;;15.10;4.00;;;;;;;11.12;70.95;100499.86;110135;1257;21974;-80
2022/10/04 03:11:19;;;;;;;12.10;4.30;;;;;;;11.13;70.94;100501.03;109954;1259;23627;-81
2022/10/04 03:14:39;;;;;;;;;;;;;;;;;;;;;
2022/10/04 03:18:08;;;;;;;13.00;5.00;;;;;;;11.16;71.21;100501.27;111012;1250;21970;-81
2022/10/04 03:20:42;;;;;;;14.40;5.00;;;;;;;11.20;71.04;100500.27;110891;1251;22000;-81
2022/10/04 03:23:20;;;;;;;11.20;4.40;;;;;;;11.15;70.89;100498.36;110637;1251;21968;-81
2022/10/04 03:26:08;;;;;;;14.70;4.50;;;;;;;11.15;70.84;100502.00;110722;1251;22753;-81
2022/10/04 03:29:11;;;;;;;13.20;3.50;;;;;;;11.15;70.81;100501.33;110787;1251;23701;-81
2022/10/04 03:31:51;;;;;;;13.40;4.60;;;;;;;11.13;70.80;100502.29;110873;1251;23711;-81
2022/10/04 03:34:40;;;;;;;13.70;4.30;;;;;;;11.10;70.78;100503.41;111004;1251;22955;-82
2022/10/04 03:37:20;;;;;;;14.00;4.10;;;;;;;11.09;70.82;100510.23;110596;1253;21937;-80
2022/10/04 03:39:54;;;;;;;12.80;4.60;;;;;;;11.10;70.77;100514.04;110147;1256;23713;-80
2022/10/04 03:42:29;;;;;;;15.10;4.80;;;;;;;11.08;70.70;100514.64;109525;1261;21975;-80
2022/10/04 03:45:19;;;;;;;13.80;4.30;;;;;;;11.06;70.68;100521.70;109848;1260;21986;-81
2022/10/04 03:48:08;;;;;;;11.70;4.40;;;;;;;11.03;70.68;100528.41;109502;1262;21962;-80
2022/10/04 03:50:47;;;;;;;17.70;5.00;;;;;;;11.04;70.83;100533.61;109665;1260;21991;-82
2022/10/04 03:53:45;;;;;;;14.30;4.60;;;;;;;11.05;70.73;100532.70;109784;1260;22988;-82
2022/10/04 03:56:40;;;;;;;17.00;5.00;;;;;;;11.06;70.87;100529.88;109886;1260;22241;-81
2022/10/04 03:59:20;;;;;;;21.70;5.80;;;;;;;11.08;70.93;100527.72;110386;1256;21983;-82
2022/10/04 04:02:50;;;;;;;12.70;5.30;;;;;;;11.08;70.85;100526.14;110876;1251;21975;-82
2022/10/04 04:06:23;;;;;;;;;;;;;;;;;;;;;
2022/10/04 04:09:58;;;;;;;14.30;5.20;;;;;;;10.99;71.08;100529.10;110924;1250;22071;-81
2022/10/04 04:13:05;;;;;;;12.00;4.80;;;;;;;11.01;70.99;100531.45;110883;1250;22441;-81
2022/10/04 04:16:26;;;;;;;11.30;4.60;;;;;;;11.00;71.03;100531.66;110888;1250;21971;-81
2022/10/04 04:20:24;;;;;;;12.40;4.90;;;;;;;10.95;70.98;100532.52;109811;1262;22889;-81
2022/10/04 04:23:50;;;;;;;;;;;;;;;;;;;;;
2022/10/04 04:27:09;;;;;;;;;;;;;;;;;;;;;
2022/10/04 04:30:07;;;;;;;20.00;5.60;;;;;;;11.00;70.99;100541.77;109132;1267;22007;-83
2022/10/04 04:33:25;;;;;;;;;;;;;;;;;;;;;
2022/10/04 04:36:17;;;;;;;15.20;7.50;;;;;;;10.96;71.14;100551.45;109145;1267;23594;-80
2022/10/04 04:41:45;;;;;;;15.10;5.40;;;;;;;11.08;71.05;100555.56;109488;1264;23702;-80
2022/10/04 04:44:22;;;;;;;12.40;5.50;;;;;;;11.07;71.09;100553.36;109147;1264;22026;-82
2022/10/04 04:46:55;;;;;;;14.70;6.60;;;;;;;11.08;71.02;100557.66;108984;1267;23225;-79
2022/10/04 04:50:30;;;;;;;10.20;4.90;;;;;;;11.07;71.04;100559.79;109140;1266;22916;-79
2022/10/04 04:53:32;;;;;;;17.50;4.90;;;;;;;11.04;70.96;100557.45;109023;1265;22036;-79
2022/10/04 04:56:39;;;;;;;;;;;;;;;;;;;;;
2022/10/04 05:00:41;;;;;;;11.90;4.80;;;;;;;10.97;71.18;100574.42;108406;1276;23012;-81
2022/10/04 05:07:42;;;;;;;15.00;5.40;;;;;;;11.01;71.35;100579.86;109146;1267;21980;-82
2022/10/04 05:11:17;;;;;;;14.10;5.20;;;;;;;11.04;71.26;100587.75;109163;1268;23069;-81
2022/10/04 05:14:19;;;;;;;13.70;6.00;;;;;;;11.05;71.28;100588.09;108759;1270;23074;-81
2022/10/04 05:17:58;;;;;;;13.30;5.20;;;;;;;11.06;71.27;100588.39;109254;1262;22987;-81
2022/10/04 05:21:02;;;;;;;14.90;5.50;;;;;;;11.06;71.42;100583.85;109371;1265;22011;-79
2022/10/04 05:23:38;;;;;;;13.90;4.80;;;;;;;11.09;71.37;100587.91;109255;1265;22182;-79
2022/10/04 05:26:19;;;;;;;9.80;4.50;;;;;;;11.09;71.08;100588.27;108985;1270;21998;-80
2022/10/04 05:29:30;;;;;;;13.50;5.70;;;;;;;11.07;71.27;100593.04;108859;1270;21983;-80
2022/10/04 05:32:46;;;;;;;17.40;6.10;;;;;;;11.05;71.24;100598.19;108586;1273;22673;-79
2022/10/04 05:35:33;;;;;;;18.10;6.60;;;;;;;11.02;71.23;100599.50;108552;1276;22014;-80
2022/10/04 05:38:22;;;;;;;16.70;7.70;;;;;;;10.99;71.10;100603.07;108257;1273;22013;-77
2022/10/04 05:41:19;;;;;;;17.60;7.00;;;;;;;10.99;71.22;100604.82;108543;1275;22001;-79
2022/10/04 05:44:30;;;;;;;11.80;7.30;;;;;;;11.01;71.27;100608.61;108787;1267;22457;-79
2022/10/04 05:47:44;;;;;;;14.60;8.50;;;;;;;10.99;71.45;100613.18;109188;1265;23058;-81
2022/10/04 05:50:41;;;;;;;13.10;6.40;;;;;;;11.01;71.32;100615.02;109287;1267;22987;-79
2022/10/04 05:53:32;;;;;;;23.50;7.70;;;;;;;11.00;71.27;100616.64;108866;1267;21998;-80
2022/10/04 05:56:39;;;;;;;19.30;8.80;;;;;;;11.02;71.30;100620.23;108915;1267;23772;-80
2022/10/04 05:59:57;;;;;;;14.80;6.90;;;;;;;11.02;71.46;100624.74;109189;1261;21982;-79
2022/10/04 06:03:35;;;;;;;13.90;6.00;;;;;;;11.00;71.63;100626.56;109916;1261;21987;-78
2022/10/04 06:06:44;;;;;;;14.70;6.40;;;;;;;11.00;71.60;100634.77;108869;1268;21998;-81
2022/10/04 06:09:55;;;;;;;13.40;5.90;;;;;;;11.01;71.48;100639.41;109245;1264;21979;-79
2022/10/04 06:12:56;;;;;;;12.10;5.70;;;;;;;11.00;71.43;100643.10;110161;1258;23130;-79
2022/10/04 06:16:07;;;;;;;15.90;6.80;;;;;;;11.01;71.53;100647.77;109156;1266;22113;-79
2022/10/04 06:19:12;;;;;;;14.30;5.50;;;;;;;11.04;71.47;100650.29;109303;1265;23621;-79
2022/10/04 06:22:19;;;;;;;14.10;6.20;;;;;;;11.07;71.66;100651.57;109365;1265;23595;-80
2022/10/04 06:25:20;;;;;;;19.50;7.40;;;;;;;11.13;71.57;100653.45;108908;1271;21998;-78
2022/10/04 06:28:06;;;;;;;16.70;6.40;;;;;;;11.19;71.53;100659.02;108624;1273;23740;-79
2022/10/04 06:31:43;;;;;;;18.70;6.90;;;;;;;11.25;71.59;100661.38;108704;1273;22001;-82
2022/10/04 06:35:48;;;;;;;13.90;7.00;;;;;;;11.29;71.45;100661.77;108188;1282;21999;-78
2022/10/04 06:38:55;;;;;;;13.90;6.80;;;;;;;11.33;71.55;100667.36;106623;1294;23764;-80
2022/10/04 06:42:05;;;;;;;17.40;7.40;;;;;;;11.38;71.22;100672.08;106693;1294;22016;-78
2022/10/04 06:45:07;;;;;;;17.00;6.20;;;;;;;11.40;71.09;100676.86;107586;1288;23822;-76
2022/10/04 06:48:06;;;;;;;13.00;6.10;;;;;;;11.44;71.38;100679.88;107644;1286;22322;-76
2022/10/04 06:50:57;;;;;;;13.70;6.90;;;;;;;11.47;71.25;100683.45;107919;1285;22004;-77
2022/10/04 06:53:44;;;;;;;11.40;5.90;;;;;;;11.50;70.98;100687.16;107934;1279;22027;-77
2022/10/04 06:56:35;;;;;;;14.80;5.90;;;;;;;11.52;70.93;100690.23;108205;1279;22003;-77
2022/10/04 06:59:29;;;;;;;15.10;5.80;;;;;;;11.53;71.02;100694.17;108380;1273;22059;-77
2022/10/04 07:02:39;;;;;;;13.40;6.40;;;;;;;11.56;70.99;100690.27;108665;1273;23603;-76
2022/10/04 07:05:42;;;;;;;14.30;6.30;;;;;;;11.61;70.86;100701.90;108512;1273;22209;-78
2022/10/04 07:08:50;;;;;;;19.30;7.10;;;;;;;11.59;70.71;100703.89;108369;1276;22011;-76
2022/10/04 07:11:47;;;;;;;12.30;6.20;;;;;;;11.62;70.57;100707.09;108809;1260;21975;-82
2022/10/04 07:14:30;;;;;;;15.60;6.00;;;;;;;11.66;70.69;100711.65;109835;1261;23590;-81
2022/10/04 07:17:13;;;;;;;15.40;7.10;;;;;;;11.75;70.78;100715.86;110042;1260;23595;-81
2022/10/04 07:19:56;;;;;;;13.20;6.10;;;;;;;11.81;70.39;100716.35;109341;1264;21996;-81
2022/10/04 07:22:46;;;;;;;12.50;4.60;;;;;;;11.87;70.25;100719.11;109176;1264;22840;-81
2022/10/04 07:25:26;;;;;;;11.40;5.30;;;;;;;11.91;70.05;100721.59;108884;1270;22058;-81
2022/10/04 07:31:05;;;;;;;14.90;6.20;;;;;;;12.01;69.93;100722.45;109575;1263;21989;-81
2022/10/04 07:33:43;;;;;;;11.90;5.80;;;;;;;12.08;69.56;100722.52;109751;1263;22067;-82
2022/10/04 07:36:17;;;;;;;19.10;6.50;;;;;;;12.14;69.74;100727.52;109058;1270;22006;-81
2022/10/04 07:39:32;;;;;;;13.00;7.50;;;;;;;12.25;69.57;100723.96;109321;1263;22753;-81
2022/10/04 07:42:45;;;;;;;16.00;10.20;;;;;;;12.32;69.28;100727.16;108936;1273;23055;-82
2022/10/04 07:45:38;;;;;;;14.60;6.50;;;;;;;12.38;69.19;100726.96;108568;1265;21975;-79
2022/10/04 07:48:28;;;;;;;17.90;7.30;;;;;;;12.45;69.13;100724.59;109377;1263;22026;-81
2022/10/04 07:51:08;;;;;;;10.00;5.20;;;;;;;12.58;69.26;100720.21;109092;1265;21989;-81
2022/10/04 07:54:03;;;;;;;8.90;4.90;;;;;;;12.72;68.71;100724.91;109452;1262;23500;-81
2022/10/04 07:56:46;;;;;;;15.90;6.00;;;;;;;12.75;68.10;100725.12;110171;1260;21987;-81
2022/10/04 07:59:35;;;;;;;11.80;6.70;;;;;;;12.82;68.30;100727.46;109855;1260;21982;-81
2022/10/04 08:02:22;;;;;;;15.70;6.30;;;;;;;13.02;68.05;100729.42;109455;1262;22520;-80
2022/10/04 08:05:36;;;;;;;13.00;7.10;;;;;;;13.08;67.45;100733.22;109727;1263;21988;-81
2022/10/04 08:08:29;;;;;;;11.40;5.50;;;;;;;13.17;67.31;100735.27;109779;1263;23796;-81
2022/10/04 08:11:21;;;;;;;9.70;4.50;;;;;;;13.28;66.87;100739.52;109983;1263;23126;-80
2022/10/04 08:14:04;;;;;;;8.60;4.50;;;;;;;13.32;66.11;100740.05;109809;1263;22013;-81
2022/10/04 08:16:54;;;;;;;6.60;3.80;;;;;;;13.39;66.01;100741.71;110070;1261;21969;-80
2022/10/04 08:19:55;;;;;;;8.40;4.60;;;;;;;13.42;65.48;100745.56;109684;1259;22021;-78
2022/10/04 08:23:12;;;;;;;10.40;4.80;;;;;;;13.45;65.30;100749.31;110496;1254;23086;-79
2022/10/04 08:26:16;;;;;;;10.10;4.60;;;;;;;13.46;64.94;100758.19;110456;1256;23317;-79
2022/10/04 08:29:42;;;;;;;12.00;4.60;;;;;;;13.40;64.51;100758.61;109592;1263;21979;-78
2022/10/04 08:33:00;;;;;;;11.80;3.80;;;;;;;13.34;64.54;100763.07;109179;1270;21990;-80
2022/10/04 08:35:35;;;;;;;10.20;4.20;;;;;;;13.32;64.48;100767.55;109194;1270;22549;-79
2022/10/04 08:38:20;;;;;;;9.20;3.40;;;;;;;13.37;64.56;100768.02;108927;1267;23732;-77
2022/10/04 08:41:09;;;;;;;11.20;3.90;;;;;;;13.36;64.13;100769.64;109185;1267;22591;-80
2022/10/04 08:44:22;;;;;;;8.30;4.20;;;;;;;13.33;64.24;100769.05;109367;1267;21990;-79
2022/10/04 08:47:11;;;;;;;6.70;3.40;;;;;;;13.33;64.25;100775.86;109449;1265;22048;-80
2022/10/04 08:50:18;;;;;;;8.60;3.70;;;;;;;13.31;64.13;100776.63;109466;1264;21991;-81
2022/10/04 08:53:20;;;;;;;11.50;4.10;;;;;;;13.31;64.12;100777.88;109445;1265;21977;-80
2022/10/04 08:56:09;;;;;;;8.40;4.40;;;;;;;13.36;64.12;100784.67;109304;1267;22065;-80
2022/10/04 08:59:48;;;;;;;9.60;4.00;;;;;;;13.42;64.09;100785.44;108916;1267;22098;-81
2022/10/04 09:02:55;;;;;;;13.60;4.90;;;;;;;13.54;64.11;100785.45;108701;1273;22003;-80
2022/10/04 09:06:06;;;;;;;9.10;4.10;;;;;;;13.66;63.83;100789.48;108580;1268;22052;-80
2022/10/04 09:08:49;;;;;;;11.90;3.80;;;;;;;13.72;63.42;100792.02;109355;1263;22770;-81
2022/10/04 09:11:57;;;;;;;10.30;3.80;;;;;;;13.76;63.07;100790.27;109889;1263;23751;-79
2022/10/04 09:15:03;;;;;;;9.40;3.80;;;;;;;13.81;62.90;100790.06;109642;1264;23605;-82
2022/10/04 09:18:21;;;;;;;8.30;3.40;;;;;;;13.87;62.53;100793.11;109218;1267;23014;-79
2022/10/04 09:22:10;;;;;;;;;;;;;;;;;;;;;
2022/10/04 09:25:30;;;;;;;7.90;3.20;;;;;;;13.98;62.29;100799.13;109140;1272;21998;-81
2022/10/04 09:28:26;;;;;;;7.30;2.80;;;;;;;14.04;61.94;100801.42;109104;1273;22461;-82
2022/10/04 09:31:21;;;;;;;8.40;3.30;;;;;;;14.12;62.04;100802.30;108610;1276;21994;-80
2022/10/04 09:33:58;;;;;;;6.90;3.60;;;;;;;14.21;61.72;100802.76;108595;1279;22873;-82
2022/10/04 09:36:51;;;;;;;12.40;4.00;;;;;;;14.28;61.31;100803.52;108670;1276;22058;-80
2022/10/04 09:40:10;;;;;;;16.40;4.00;;;;;;;14.36;61.50;100806.13;109444;1263;23807;-79
2022/10/04 09:43:08;;;;;;;11.20;4.70;;;;;;;14.43;61.06;100810.86;109256;1270;21991;-79
2022/10/04 09:46:30;;;;;;;9.00;4.10;;;;;;;14.36;60.32;100812.62;108771;1270;23024;-81
2022/10/04 09:49:34;;;;;;;10.90;3.70;;;;;;;14.24;60.60;100812.11;108760;1273;21961;-83
2022/10/04 09:52:22;;;;;;;8.70;2.80;;;;;;;14.32;60.92;100817.85;108958;1272;22452;-80
2022/10/04 09:55:27;;;;;;;8.90;3.30;;;;;;;14.34;60.27;100820.06;108988;1273;22181;-80
2022/10/04 09:58:35;;;;;;;9.60;3.40;;;;;;;14.26;59.95;100819.89;109066;1267;22113;-81
2022/10/04 10:01:39;;;;;;;7.20;3.40;;;;;;;14.21;60.20;100822.23;109295;1266;22064;-81
2022/10/04 10:05:02;;;;;;;10.60;3.50;;;;;;;14.19;60.15;100821.95;109310;1267;23100;-81
2022/10/04 10:07:57;;;;;;;8.10;3.30;;;;;;;14.13;60.19;100822.58;108890;1273;22312;-81
2022/10/04 10:14:11;;;;;;;4.80;3.00;;;;;;;14.18;60.24;100827.44;108949;1273;23090;-81
2022/10/04 10:17:19;;;;;;;8.60;3.40;;;;;;;14.21;60.30;100828.31;109040;1273;23102;-81
2022/10/04 10:20:23;;;;;;;10.10;3.60;;;;;;;14.36;60.18;100835.88;109059;1267;22220;-82
2022/10/04 10:23:31;;;;;;;12.00;6.60;;;;;;;14.51;60.75;100831.86;109122;1267;23030;-79
2022/10/04 10:26:31;;;;;;;18.30;10.50;;;;;;;14.93;60.21;100837.29;109433;1267;21995;-81
2022/10/04 10:29:08;;;;;;;14.80;9.80;;;;;;;15.05;58.58;100843.55;109213;1267;23601;-80
2022/10/04 10:32:06;;;;;;;;;;;;;;;14.99;57.59;100845.74;109175;1268;22836;-81
2022/10/04 10:35:09;;;;;;;13.10;4.40;;;;;;;14.83;57.45;100844.06;109085;1270;23616;-82
2022/10/04 10:37:53;;;;;;;8.10;3.30;;;;;;;14.74;57.61;100849.73;109200;1265;21997;-81
2022/10/04 10:40:57;;;;;;;8.90;3.70;;;;;;;14.71;57.74;100847.23;109635;1265;22018;-82
2022/10/04 10:43:38;;;;;;;6.20;2.80;;;;;;;14.73;58.05;100845.05;109959;1263;23124;-80
2022/10/04 10:46:12;;;;;;;12.90;3.10;;;;;;;14.76;58.04;100841.95;109617;1263;23010;-81
2022/10/04 10:49:16;;;;;;;8.20;3.00;;;;;;;14.89;58.13;100843.10;109863;1262;21982;-81
2022/10/04 10:52:44;;;;;;;11.20;3.70;;;;;;;15.04;58.28;100843.04;109950;1259;21974;-80
2022/10/04 10:55:58;;;;;;;8.20;3.40;;;;;;;15.58;58.70;100846.16;109375;1267;23800;-81
2022/10/04 10:58:38;;;;;;;9.20;3.20;;;;;;;15.79;56.17;100846.53;109598;1265;22098;-81
2022/10/04 11:01:40;;;;;;;7.70;2.80;;;;;;;15.74;55.29;100849.05;109323;1267;23715;-82
2022/10/04 11:04:53;;;;;;;7.50;3.10;;;;;;;15.59;54.91;100852.10;109367;1267;22189;-80
2022/10/04 11:07:50;;;;;;;7.60;2.70;;;;;;;15.46;54.97;100853.63;109390;1267;22024;-81
2022/10/04 11:10:38;;;;;;;8.10;2.40;;;;;;;15.35;54.82;100852.77;109429;1263;22439;-81
2022/10/04 11:13:12;;;;;;;7.00;2.80;;;;;;;15.25;54.83;100852.39;109530;1263;23041;-81
2022/10/04 11:16:27;;;;;;;9.30;3.40;;;;;;;15.19;55.02;100854.75;109372;1267;22197;-80
2022/10/04 11:20:02;;;;;;;9.60;2.80;;;;;;;15.18;55.25;100854.83;109376;1263;21990;-80
2022/10/04 11:23:19;;;;;;;6.30;2.80;;;;;;;15.13;55.13;100856.13;108868;1273;22006;-82
2022/10/04 11:26:09;;;;;;;9.50;2.70;;;;;;;15.15;55.33;100855.51;108882;1273;21982;-81
2022/10/04 11:29:30;;;;;;;8.60;3.60;;;;;;;15.18;54.94;100859.73;108829;1267;23617;-82
2022/10/04 11:32:01;;;;;;;11.90;3.80;;;;;;;15.07;55.12;100859.57;108783;1273;21987;-82
2022/10/04 11:35:37;;;;;;;10.70;3.40;;;;;;;15.13;55.96;100859.95;108566;1278;23060;-84
2022/10/04 11:38:51;;;;;;;8.80;3.20;;;;;;;15.33;56.34;100862.14;108545;1279;22061;-81
2022/10/04 11:41:49;;;;;;;9.30;4.00;;;;;;;15.45;55.52;100864.52;108995;1270;22007;-81
2022/10/04 11:44:34;;;;;;;6.20;2.90;;;;;;;15.36;54.59;100867.95;108985;1270;22006;-81
2022/10/04 11:47:34;;;;;;;9.10;2.80;;;;;;;15.25;54.61;100868.33;108982;1270;22493;-81
2022/10/04 11:50:32;;;;;;;4.80;2.60;;;;;;;15.20;54.58;100864.38;108607;1276;23660;-81
2022/10/04 11:54:26;;;;;;;6.60;2.40;;;;;;;15.11;54.52;100866.39;108841;1272;22027;-80
2022/10/04 11:57:09;;;;;;;8.40;2.70;;;;;;;14.98;54.69;100870.86;108414;1279;22000;-81
2022/10/04 12:00:19;;;;;;;5.40;3.10;;;;;;;14.95;54.63;100871.34;108539;1279;22323;-82
2022/10/04 12:03:18;;;;;;;12.70;4.10;;;;;;;14.88;54.66;100865.91;108453;1279;22013;-82
2022/10/04 12:06:21;;;;;;;6.90;3.10;;;;;;;14.82;54.99;100869.70;108255;1283;22006;-81
2022/10/04 12:09:26;;;;;;;7.20;2.80;;;;;;;14.85;55.65;100869.04;107856;1284;22065;-80
2022/10/04 12:12:42;;;;;;;7.20;2.90;;;;;;;14.92;55.76;100865.90;107898;1284;22481;-81
2022/10/04 12:15:26;;;;;;;10.00;3.20;;;;;;;15.00;55.78;100873.75;107733;1288;22030;-82
2022/10/04 12:18:48;;;;;;;7.30;2.70;;;;;;;15.05;55.58;100874.75;107875;1288;22023;-80
2022/10/04 12:22:04;;;;;;;7.60;3.10;;;;;;;15.09;55.46;100872.27;107773;1282;22174;-81
2022/10/04 12:25:20;;;;;;;9.10;3.10;;;;;;;15.14;55.47;100867.83;108186;1282;23694;-81
2022/10/04 12:28:16;;;;;;;9.30;2.70;;;;;;;15.20;55.56;100870.64;108178;1282;22893;-82
2022/10/04 12:31:10;;;;;;;5.70;2.40;;;;;;;15.25;54.99;100868.88;108467;1279;23714;-85
2022/10/04 12:34:13;;;;;;;19.90;18.10;;;;;;;15.27;54.91;100868.95;108296;1278;22024;-79
2022/10/04 12:37:12;;;;;;;5.50;2.30;;;;;;;15.34;54.79;100869.46;108275;1279;22235;-82
2022/10/04 12:40:23;;;;;;;6.40;2.70;;;;;;;15.38;54.38;100868.39;108442;1279;22486;-81
2022/10/04 12:43:05;;;;;;;8.00;3.00;;;;;;;15.39;54.11;100869.36;108672;1273;22048;-82
2022/10/04 12:45:46;;;;;;;7.90;2.60;;;;;;;15.40;54.01;100869.84;109031;1259;23496;-80
2022/10/04 12:48:54;;;;;;;8.40;2.30;;;;;;;15.44;54.05;100874.92;110335;1260;22442;-81
2022/10/04 12:51:52;;;;;;;5.20;2.80;;;;;;;15.47;53.45;100877.41;109688;1263;21996;-82
2022/10/04 12:54:34;;;;;;;5.30;2.10;;;;;;;15.41;52.80;100874.01;109455;1265;21994;-82
2022/10/04 12:57:46;;;;;;;8.00;2.40;;;;;;;15.35;52.37;100873.77;109811;1264;24521;-82
2022/10/04 13:00:23;;;;;;;3.80;1.70;;;;;;;15.29;52.26;100873.75;109262;1267;23007;-82
2022/10/04 13:03:17;;;;;;;7.20;2.00;;;;;;;15.27;52.26;100869.80;109411;1267;23049;-82
2022/10/04 13:05:45;;;;;;;5.30;2.20;;;;;;;15.24;52.23;100865.90;109028;1270;21985;-84
2022/10/04 13:09:15;;;;;;;5.70;2.80;;;;;;;15.24;52.25;100861.52;109088;1270;23733;-82
2022/10/04 13:12:33;;;;;;;6.50;2.40;;;;;;;15.30;52.40;100865.80;108665;1273;22195;-83
2022/10/04 13:16:02;;;;;;;6.20;3.00;;;;;;;15.40;52.91;100861.08;108890;1273;22004;-81
2022/10/04 13:19:52;;;;;;;7.60;2.70;;;;;;;15.58;53.02;100863.70;108845;1273;21997;-82
2022/10/04 13:22:53;;;;;;;4.70;2.40;;;;;;;15.70;52.64;100867.30;108623;1276;23667;-81
2022/10/04 13:26:19;;;;;;;;;;;;;;;;;;;;;
2022/10/04 13:29:30;;;;;;;7.60;2.20;;;;;;;15.69;52.05;100866.30;109298;1267;22007;-81
2022/10/04 13:32:26;;;;;;;6.10;2.20;;;;;;;15.69;51.97;100872.45;108955;1270;22038;-82
2022/10/04 13:35:13;;;;;;;5.90;2.40;;;;;;;15.67;51.77;100874.50;108995;1270;21990;-80
2022/10/04 13:38:41;;;;;;;7.00;2.60;;;;;;;15.64;51.45;100869.90;109058;1270;22231;-87
2022/10/04 13:41:21;;;;;;;6.40;5.30;;;;;;;15.56;51.61;100876.63;108701;1276;21991;-83
2022/10/04 13:44:20;;;;;;;8.20;2.40;;;;;;;15.55;51.72;100879.83;108675;1276;21994;-81
2022/10/04 13:47:13;;;;;;;5.40;1.70;;;;;;;15.51;51.49;100879.15;108822;1270;22010;-82
2022/10/04 13:49:58;;;;;;;5.40;1.90;;;;;;;15.45;51.27;100876.99;109060;1270;21995;-81
2022/10/04 13:56:35;;;;;;;6.10;2.60;;;;;;;15.34;50.63;100880.31;108956;1269;22004;-82
2022/10/04 14:00:05;;;;;;;8.20;2.30;;;;;;;15.25;50.36;100875.34;110107;1259;22064;-82
2022/10/04 14:03:24;;;;;;;;;;;;;;;;;;;;;
2022/10/04 14:06:53;;;;;;;5.40;2.60;;;;;;;15.17;50.79;100875.02;110301;1259;21983;-83
2022/10/04 14:10:16;;;;;;;7.30;2.60;;;;;;;15.16;50.90;100869.10;110696;1258;21980;-83
2022/10/04 14:12:48;;;;;;;7.10;2.50;;;;;;;15.15;51.10;100869.86;111083;1250;22982;-82
2022/10/04 14:16:04;;;;;;;4.70;2.20;;;;;;;15.19;51.16;100875.98;110973;1250;24271;-83
2022/10/04 14:19:26;;;;;;;5.80;2.60;;;;;;;15.20;51.10;100880.31;110776;1253;22043;-85
2022/10/04 14:22:15;;;;;;;;;;;;;;;;;;;;;
2022/10/04 14:25:39;;;;;;;8.50;3.10;;;;;;;15.19;50.71;100880.89;110765;1256;21981;-83
2022/10/04 14:29:17;;;;;;;6.30;2.70;;;;;;;15.19;50.70;100887.36;110668;1256;22048;-81
2022/10/04 14:32:41;;;;;;;7.30;2.40;;;;;;;15.21;50.84;100892.73;110026;1260;22834;-82
2022/10/04 14:35:41;;;;;;;7.30;2.40;;;;;;;15.21;51.05;100899.90;109905;1260;23069;-81
2022/10/04 14:39:00;;;;;;;5.70;2.10;;;;;;;15.26;51.24;100902.80;109925;1261;23039;-82
2022/10/04 14:42:21;;;;;;;;;;;;;;;;;;;;;
2022/10/04 14:45:23;;;;;;;6.80;2.60;;;;;;;15.26;51.71;100900.90;110635;1256;21968;-82
2022/10/04 14:49:10;;;;;;;8.40;3.10;;;;;;;15.21;51.85;100902.20;109763;1263;22979;-81
2022/10/04 14:52:25;;;;;;;;;;;;;;;;;;;;;